Time;durP1;ratioP1;P1;durP2;ratioP2;P2;SDS_P1;SDS_P2;PMS_P1;PMS_P2;Temp;Humidity;BMP_temperature;BMP_pressure;BME280_temperature;BME280_humidity;BME280_pressure;Samples;Min_cycle;Max_cycle;Signal;HPM_P1;HPM_P2
2022/04/28 00:02:21;;;;;;;;;;;8.90;99.90;;;;;;5049680;28;19986;-73
2022/04/28 00:04:49;;;;;;;;;;;8.90;99.90;;;;;;5049657;28;19936;-72
2022/04/28 00:07:16;;;;;;;;;;;8.80;99.90;;;;;;5053834;28;19925;-72
2022/04/28 00:09:43;;;;;;;;;;;8.80;99.90;;;;;;5053887;28;19929;-72
2022/04/28 00:12:11;;;;;;;;;;;8.70;99.90;;;;;;5053833;28;19998;-72
2022/04/28 00:14:37;;;;;;;;;;;8.70;99.90;;;;;;5053580;28;19925;-72
2022/04/28 00:17:05;;;;;;;;;;;8.60;99.90;;;;;;5053613;28;20296;-72
2022/04/28 00:19:32;;;;;;;;;;;8.60;99.90;;;;;;5053557;28;20350;-72
2022/04/28 00:22:00;;;;;;;;;;;8.50;99.90;;;;;;5053461;28;19929;-72
2022/04/28 00:24:27;;;;;;;;;;;8.40;99.90;;;;;;5053428;28;19951;-72
2022/04/28 00:26:54;;;;;;;;;;;8.40;99.90;;;;;;5053411;28;19928;-72
2022/04/28 00:29:21;;;;;;;;;;;8.30;99.90;;;;;;5053540;28;19925;-72
2022/04/28 00:31:48;;;;;;;;;;;8.30;99.90;;;;;;5053342;28;20372;-72
2022/04/28 00:34:15;;;;;;;;;;;8.20;99.90;;;;;;5053592;28;19925;-72
2022/04/28 00:36:42;;;;;;;;;;;8.20;99.90;;;;;;5070069;28;19931;-72
2022/04/28 00:39:10;;;;;;;;;;;8.20;99.90;;;;;;5053102;28;19932;-73
2022/04/28 00:41:37;;;;;;;;;;;8.10;99.90;;;;;;5053375;28;19925;-73
2022/04/28 00:44:07;;;;;;;;;;;8.10;99.90;;;;;;5053252;28;19936;-72
2022/04/28 00:46:34;;;;;;;;;;;8.00;99.90;;;;;;5052899;28;19980;-72
2022/04/28 00:51:45;;;;;;;;;;;8.00;99.90;;;;;;5053071;28;19927;-74
2022/04/28 00:54:14;;;;;;;;;;;8.00;99.90;;;;;;5069518;28;20333;-72
2022/04/28 00:56:41;;;;;;;;;;;7.90;99.90;;;;;;5052611;28;20339;-70
2022/04/28 00:59:08;;;;;;;;;;;7.90;99.90;;;;;;5052808;28;19925;-72
2022/04/28 01:01:35;;;;;;;;;;;7.80;99.90;;;;;;5069678;28;19936;-72
2022/04/28 01:04:02;;;;;;;;;;;7.80;99.90;;;;;;5052499;28;20307;-73
2022/04/28 01:06:29;;;;;;;;;;;7.70;99.90;;;;;;5052932;28;19925;-73
2022/04/28 01:08:56;;;;;;;;;;;7.60;99.90;;;;;;5069129;28;19936;-72
2022/04/28 01:11:25;;;;;;;;;;;7.60;99.90;;;;;;5052834;28;19971;-72
2022/04/28 01:13:59;;;;;;;;;;;7.60;99.90;;;;;;5052167;28;20011;-71
2022/04/28 01:16:30;;;;;;;;;;;7.50;99.90;;;;;;5051370;28;20070;-72
2022/04/28 01:18:58;;;;;;;;;;;7.50;99.90;;;;;;5052195;28;19986;-73
2022/04/28 01:21:27;;;;;;;;;;;7.50;99.90;;;;;;5069223;28;19925;-73
2022/04/28 01:23:59;;;;;;;;;;;7.40;99.90;;;;;;5052363;28;20019;-71
2022/04/28 01:26:27;;;;;;;;;;;7.40;99.90;;;;;;5052194;28;19924;-72
2022/04/28 01:28:53;;;;;;;;;;;7.30;99.90;;;;;;5052539;28;19925;-72
2022/04/28 01:31:20;;;;;;;;;;;7.40;99.90;;;;;;5070055;28;19925;-71
2022/04/28 01:33:51;;;;;;;;;;;7.40;99.90;;;;;;5052806;28;20027;-72
2022/04/28 01:36:20;;;;;;;;;;;7.40;99.90;;;;;;5053070;28;19924;-72
2022/04/28 01:38:50;;;;;;;;;;;7.30;99.90;;;;;;5053151;28;19924;-72
2022/04/28 01:41:17;;;;;;;;;;;7.30;99.90;;;;;;5053088;28;20392;-71
2022/04/28 01:43:45;;;;;;;;;;;7.30;99.90;;;;;;5052819;28;19936;-72
2022/04/28 01:46:14;;;;;;;;;;;7.40;99.90;;;;;;5053148;28;19924;-71
2022/04/28 01:48:58;;;;;;;;;;;7.40;99.90;;;;;;5052922;28;19928;-72
2022/04/28 01:57:30;;;;;;;;;;;7.40;99.90;;;;;;5024730;28;20311;-72
2022/04/28 02:00:10;;;;;;;;;;;7.40;99.90;;;;;;5052549;28;19924;-72
2022/04/28 02:02:47;;;;;;;;;;;7.40;99.90;;;;;;5052827;28;20411;-72
2022/04/28 02:05:14;;;;;;;;;;;7.40;99.90;;;;;;5052411;28;19924;-72
2022/04/28 02:07:41;;;;;;;;;;;7.40;99.90;;;;;;5052575;28;19996;-72
2022/04/28 02:10:11;;;;;;;;;;;7.40;99.90;;;;;;5068860;28;19931;-73
2022/04/28 02:12:38;;;;;;;;;;;7.40;99.90;;;;;;5052539;28;20364;-71
2022/04/28 02:15:45;;;;;;;;;;;7.40;99.90;;;;;;5053054;28;20002;-71
2022/04/28 02:18:41;;;;;;;;;;;7.40;99.90;;;;;;5053373;28;20299;-71
2022/04/28 02:21:08;;;;;;;;;;;7.30;99.90;;;;;;5051855;28;19982;-71
2022/04/28 02:23:34;;;;;;;;;;;7.30;99.90;;;;;;5068634;28;19928;-71
2022/04/28 02:26:03;;;;;;;;;;;7.30;99.90;;;;;;5052066;28;20315;-72
2022/04/28 02:28:30;;;;;;;;;;;7.30;99.90;;;;;;5051816;28;19968;-72
2022/04/28 02:30:57;;;;;;;;;;;7.30;99.90;;;;;;5035719;28;19925;-72
2022/04/28 02:33:24;;;;;;;;;;;7.30;99.90;;;;;;5068386;28;19974;-70
2022/04/28 02:36:13;;;;;;;;;;;7.30;99.90;;;;;;5055469;28;19931;-72
2022/04/28 02:38:40;;;;;;;;;;;7.20;99.90;;;;;;5068518;28;19931;-72
2022/04/28 02:41:16;;;;;;;;;;;7.20;99.90;;;;;;5068373;28;19960;-72
2022/04/28 02:43:43;;;;;;;;;;;7.20;99.90;;;;;;5068466;28;20371;-72
2022/04/28 02:46:14;;;;;;;;;;;7.20;99.90;;;;;;5068502;28;19925;-72
2022/04/28 02:48:59;;;;;;;;;;;7.20;99.90;;;;;;5053024;28;19932;-71
2022/04/28 02:51:28;;;;;;;;;;;7.10;99.90;;;;;;5068277;28;19932;-72
2022/04/28 02:53:55;;;;;;;;;;;7.20;99.90;;;;;;5067909;28;19925;-72
2022/04/28 02:56:25;;;;;;;;;;;7.10;99.90;;;;;;5068071;28;19925;-72
2022/04/28 02:58:53;;;;;;;;;;;7.10;99.90;;;;;;5068221;28;19924;-71
2022/04/28 03:01:20;;;;;;;;;;;7.00;99.90;;;;;;5068354;28;19925;-69
2022/04/28 03:03:47;;;;;;;;;;;7.00;99.90;;;;;;5068198;28;20373;-72
2022/04/28 03:11:47;;;;;;;;;;;6.90;99.90;;;;;;5051537;28;20488;-72
2022/04/28 03:14:15;;;;;;;;;;;6.90;99.90;;;;;;5067814;28;19928;-70
2022/04/28 03:16:43;;;;;;;;;;;6.80;99.90;;;;;;5068020;28;19925;-72
2022/04/28 03:19:10;;;;;;;;;;;6.80;99.90;;;;;;5067900;28;19925;-72
2022/04/28 03:21:37;;;;;;;;;;;6.80;99.90;;;;;;5067977;28;19943;-72
2022/04/28 03:24:07;;;;;;;;;;;6.80;99.90;;;;;;5067854;28;19972;-72
2022/04/28 03:26:37;;;;;;;;;;;6.80;99.90;;;;;;5067438;28;20023;-71
2022/04/28 03:29:07;;;;;;;;;;;6.80;99.90;;;;;;5066623;28;20410;-73
2022/04/28 03:31:34;;;;;;;;;;;6.70;99.90;;;;;;5067031;28;20384;-73
2022/04/28 03:34:23;;;;;;;;;;;6.70;99.90;;;;;;5066982;28;19939;-73
2022/04/28 03:36:51;;;;;;;;;;;6.70;99.90;;;;;;5066968;28;20023;-73
2022/04/28 03:39:19;;;;;;;;;;;6.70;99.90;;;;;;5066307;28;20377;-72
2022/04/28 03:41:47;;;;;;;;;;;6.70;99.90;;;;;;5066744;28;19925;-72
2022/04/28 03:44:15;;;;;;;;;;;6.70;99.90;;;;;;5066479;28;20027;-73
2022/04/28 03:46:43;;;;;;;;;;;6.70;99.90;;;;;;5066768;28;20316;-72
2022/04/28 03:49:10;;;;;;;;;;;6.70;99.90;;;;;;5066677;28;19931;-73
2022/04/28 03:51:37;;;;;;;;;;;6.60;99.90;;;;;;5066836;28;19924;-74
2022/04/28 03:54:04;;;;;;;;;;;6.60;99.90;;;;;;5066525;28;20364;-73
2022/04/28 03:56:33;;;;;;;;;;;6.60;99.90;;;;;;5066548;28;19924;-72
2022/04/28 03:59:06;;;;;;;;;;;6.60;99.90;;;;;;5066489;28;20032;-73
2022/04/28 04:01:52;;;;;;;;;;;6.50;99.90;;;;;;5049877;28;20408;-73
2022/04/28 04:04:19;;;;;;;;;;;6.50;99.90;;;;;;5066653;28;19925;-73
2022/04/28 04:06:53;;;;;;;;;;;6.50;99.90;;;;;;5066688;28;19925;-73
2022/04/28 04:09:46;;;;;;;;;;;6.50;99.90;;;;;;5051325;28;20340;-72
2022/04/28 04:12:26;;;;;;;;;;;6.50;99.90;;;;;;5066681;28;19929;-73
2022/04/28 04:15:12;;;;;;;;;;;6.50;99.90;;;;;;5050682;28;19925;-73
2022/04/28 04:18:03;;;;;;;;;;;6.40;99.90;;;;;;5058980;28;20032;-72
2022/04/28 04:20:47;;;;;;;;;;;6.30;99.90;;;;;;5066146;28;20463;-73
2022/04/28 04:23:13;;;;;;;;;;;6.30;99.90;;;;;;5066339;28;19925;-73
2022/04/28 04:25:40;;;;;;;;;;;6.20;99.90;;;;;;5065773;28;19975;-72
2022/04/28 04:28:14;;;;;;;;;;;6.10;99.90;;;;;;5066699;28;19931;-72
2022/04/28 04:33:53;;;;;;;;;;;5.90;99.90;;;;;;5049372;28;19925;-73
2022/04/28 04:36:20;;;;;;;;;;;5.80;99.90;;;;;;5066318;28;19925;-72
2022/04/28 04:38:47;;;;;;;;;;;5.70;99.90;;;;;;5066115;28;20032;-70
2022/04/28 04:41:14;;;;;;;;;;;5.60;99.90;;;;;;5066100;28;20446;-72
2022/04/28 04:43:41;;;;;;;;;;;5.60;99.90;;;;;;5066004;28;19932;-72
2022/04/28 04:46:08;;;;;;;;;;;5.60;99.90;;;;;;5066435;28;19975;-73
2022/04/28 04:48:55;;;;;;;;;;;5.60;99.90;;;;;;5050886;28;19932;-72
2022/04/28 04:51:36;;;;;;;;;;;5.60;99.90;;;;;;5067778;28;19928;-71
2022/04/28 04:54:22;;;;;;;;;;;5.70;99.90;;;;;;5069700;28;19929;-72
2022/04/28 04:56:51;;;;;;;;;;;5.60;99.90;;;;;;5069648;28;19925;-73
2022/04/28 04:59:18;;;;;;;;;;;5.60;99.90;;;;;;5069748;28;19925;-72
2022/04/28 05:01:45;;;;;;;;;;;5.60;99.90;;;;;;5067105;28;19951;-71
2022/04/28 05:04:32;;;;;;;;;;;5.60;99.90;;;;;;5052884;28;19932;-73
2022/04/28 05:07:17;;;;;;;;;;;5.60;99.90;;;;;;5053084;28;19944;-73
2022/04/28 05:09:46;;;;;;;;;;;5.60;99.90;;;;;;5052702;28;19932;-72
2022/04/28 05:12:14;;;;;;;;;;;5.60;99.90;;;;;;5052551;28;19924;-72
2022/04/28 05:14:55;;;;;;;;;;;5.60;99.90;;;;;;5052671;28;19932;-73
2022/04/28 05:17:26;;;;;;;;;;;5.60;99.90;;;;;;5052427;28;19963;-73
2022/04/28 05:20:15;;;;;;;;;;;5.60;99.90;;;;;;5045897;28;19928;-72
2022/04/28 05:23:00;;;;;;;;;;;5.70;99.90;;;;;;5033826;28;19945;-72
2022/04/28 05:25:46;;;;;;;;;;;5.70;99.90;;;;;;5033850;28;20008;-73
2022/04/28 05:28:32;;;;;;;;;;;5.80;99.90;;;;;;5033664;28;19925;-73
2022/04/28 05:31:19;;;;;;;;;;;5.90;99.90;;;;;;5033618;28;19929;-72
2022/04/28 05:34:03;;;;;;;;;;;6.00;99.90;;;;;;5049018;28;19925;-73
2022/04/28 05:37:00;;;;;;;;;;;6.10;99.90;;;;;;5045690;28;19936;-70
2022/04/28 05:39:28;;;;;;;;;;;6.30;99.90;;;;;;5052113;28;19928;-73
2022/04/28 05:41:55;;;;;;;;;;;6.30;99.90;;;;;;5052705;28;19974;-73
2022/04/28 05:47:07;;;;;;;;;;;6.50;99.90;;;;;;5046942;28;19921;-72
2022/04/28 05:49:34;;;;;;;;;;;6.70;99.90;;;;;;5032247;28;19932;-71
2022/04/28 05:52:04;;;;;;;;;;;6.70;99.90;;;;;;5032453;28;19925;-72
2022/04/28 05:54:31;;;;;;;;;;;6.80;99.90;;;;;;5032145;28;19931;-71
2022/04/28 05:56:59;;;;;;;;;;;6.90;99.90;;;;;;5048627;28;20007;-71
2022/04/28 05:59:26;;;;;;;;;;;7.00;99.90;;;;;;5031727;28;19944;-71
2022/04/28 06:02:11;;;;;;;;;;;7.10;99.90;;;;;;5032933;28;19932;-71
2022/04/28 06:04:38;;;;;;;;;;;7.20;99.90;;;;;;5031276;28;20393;-71
2022/04/28 06:07:06;;;;;;;;;;;7.30;99.90;;;;;;5031685;28;19931;-71
2022/04/28 06:09:37;;;;;;;;;;;7.50;99.90;;;;;;5031671;28;19968;-70
2022/04/28 06:12:05;;;;;;;;;;;7.50;99.90;;;;;;5048897;28;20053;-72
2022/04/28 06:14:55;;;;;;;;;;;7.60;99.90;;;;;;5052218;28;20315;-71
2022/04/28 06:17:29;;;;;;;;;;;7.70;99.90;;;;;;5068421;28;20422;-70
2022/04/28 06:19:56;;;;;;;;;;;7.80;99.90;;;;;;5066788;28;19937;-71
2022/04/28 06:22:47;;;;;;;;;;;7.80;99.90;;;;;;5051388;28;20423;-73
2022/04/28 06:25:15;;;;;;;;;;;7.90;99.90;;;;;;5067761;28;19929;-71
2022/04/28 06:27:46;;;;;;;;;;;8.00;99.90;;;;;;5068285;28;19932;-71
2022/04/28 06:30:13;;;;;;;;;;;8.00;99.90;;;;;;5068006;28;19925;-72
2022/04/28 06:32:41;;;;;;;;;;;8.10;99.90;;;;;;5067795;28;19925;-72
2022/04/28 06:35:21;;;;;;;;;;;8.10;99.90;;;;;;5067376;28;20355;-71
2022/04/28 06:37:51;;;;;;;;;;;8.20;99.90;;;;;;5064552;28;19941;-68
2022/04/28 06:40:19;;;;;;;;;;;8.20;99.90;;;;;;5051074;28;19994;-71
2022/04/28 06:42:50;;;;;;;;;;;8.30;99.90;;;;;;5067382;28;19975;-71
2022/04/28 06:45:23;;;;;;;;;;;8.40;99.90;;;;;;5051590;28;19925;-71
2022/04/28 06:47:52;;;;;;;;;;;8.40;99.90;;;;;;5052303;28;19950;-72
2022/04/28 06:50:42;;;;;;;;;;;8.50;99.90;;;;;;5052089;28;20427;-71
2022/04/28 06:53:23;;;;;;;;;;;8.60;99.90;;;;;;5052073;28;19925;-71
2022/04/28 06:55:53;;;;;;;;;;;8.70;99.90;;;;;;5067870;28;19987;-71
2022/04/28 06:58:21;;;;;;;;;;;8.80;99.90;;;;;;5067432;28;19931;-71
2022/04/28 07:00:50;;;;;;;;;;;8.90;99.90;;;;;;5050715;28;20384;-70
2022/04/28 07:03:19;;;;;;;;;;;9.00;99.90;;;;;;5049141;28;19978;-71
2022/04/28 07:05:48;;;;;;;;;;;9.10;99.90;;;;;;5066524;28;19978;-72
2022/04/28 07:08:15;;;;;;;;;;;9.20;99.90;;;;;;5067086;28;20458;-71
2022/04/28 07:10:47;;;;;;;;;;;9.20;99.90;;;;;;5067283;28;19924;-71
2022/04/28 07:13:14;;;;;;;;;;;9.30;99.90;;;;;;5066950;28;19947;-71
2022/04/28 07:15:59;;;;;;;;;;;9.30;99.90;;;;;;5047436;28;19948;-66
2022/04/28 07:18:46;;;;;;;;;;;9.40;99.90;;;;;;5051969;28;19929;-70
2022/04/28 07:21:14;;;;;;;;;;;9.50;99.90;;;;;;5068288;28;20403;-67
2022/04/28 07:23:41;;;;;;;;;;;9.60;99.90;;;;;;5067733;28;19932;-67
2022/04/28 07:26:11;;;;;;;;;;;9.70;99.90;;;;;;5067571;28;19964;-67
2022/04/28 07:28:38;;;;;;;;;;;9.80;99.90;;;;;;5066945;28;19929;-67
2022/04/28 07:31:25;;;;;;;;;;;9.90;99.90;;;;;;5052326;28;19979;-67
2022/04/28 07:34:10;;;;;;;;;;;9.90;99.90;;;;;;5052601;28;19924;-67
2022/04/28 07:36:56;;;;;;;;;;;10.00;99.90;;;;;;5052505;28;19966;-68
2022/04/28 07:39:29;;;;;;;;;;;10.10;99.90;;;;;;5052468;28;20298;-67
2022/04/28 07:42:14;;;;;;;;;;;10.10;99.90;;;;;;5067329;28;19932;-67
2022/04/28 07:44:43;;;;;;;;;;;10.20;99.90;;;;;;5066205;28;20115;-68
2022/04/28 07:47:10;;;;;;;;;;;10.30;99.90;;;;;;5049903;28;19925;-71
2022/04/28 07:49:43;;;;;;;;;;;10.40;99.90;;;;;;5067047;28;19931;-71
2022/04/28 07:52:12;;;;;;;;;;;10.50;99.90;;;;;;5050721;28;20023;-69
2022/04/28 07:54:41;;;;;;;;;;;10.60;99.90;;;;;;5050621;28;19925;-68
2022/04/28 07:57:08;;;;;;;;;;;10.70;99.90;;;;;;5050632;28;19936;-72
2022/04/28 07:59:38;;;;;;;;;;;10.80;99.90;;;;;;5050194;28;19925;-68
2022/04/28 08:02:11;;;;;;;;;;;10.80;99.90;;;;;;5046909;28;19929;-70
2022/04/28 08:04:38;;;;;;;;;;;10.80;99.90;;;;;;5064744;28;19931;-71
2022/04/28 08:07:05;;;;;;;;;;;10.90;99.90;;;;;;5066999;28;19925;-72
2022/04/28 08:09:36;;;;;;;;;;;11.00;99.90;;;;;;5065697;28;19925;-72
2022/04/28 08:12:03;;;;;;;;;;;11.10;99.90;;;;;;5065791;28;19951;-71
2022/04/28 08:14:30;;;;;;;;;;;11.30;99.90;;;;;;5048816;28;19925;-71
2022/04/28 08:16:59;;;;;;;;;;;11.30;99.90;;;;;;5049069;28;19936;-71
2022/04/28 08:19:26;;;;;;;;;;;11.40;99.90;;;;;;5049045;28;19931;-71
2022/04/28 08:22:00;;;;;;;;;;;11.50;99.90;;;;;;5065837;28;19929;-70
2022/04/28 08:24:27;;;;;;;;;;;11.60;99.90;;;;;;5049080;28;19928;-71
2022/04/28 08:26:55;;;;;;;;;;;11.70;99.90;;;;;;5051773;28;19925;-72
2022/04/28 08:29:22;;;;;;;;;;;11.80;99.90;;;;;;5053218;28;19925;-71
2022/04/28 08:31:54;;;;;;;;;;;11.90;99.90;;;;;;5053770;28;19964;-71
2022/04/28 08:34:23;;;;;;;;;;;12.00;99.90;;;;;;5053181;28;19925;-71
2022/04/28 08:36:52;;;;;;;;;;;12.10;99.90;;;;;;5053323;28;19932;-70
2022/04/28 08:39:21;;;;;;;;;;;12.20;99.90;;;;;;5052956;28;19932;-70
2022/04/28 08:41:48;;;;;;;;;;;12.30;99.90;;;;;;5053056;28;19924;-71
2022/04/28 08:44:21;;;;;;;;;;;12.30;99.90;;;;;;5054508;28;19925;-71
2022/04/28 08:46:54;;;;;;;;;;;12.40;99.90;;;;;;5070042;28;19970;-72
2022/04/28 08:49:28;;;;;;;;;;;12.50;99.90;;;;;;5052989;28;19960;-72
2022/04/28 08:52:25;;;;;;;;;;;12.60;99.90;;;;;;5034907;28;19940;-70
2022/04/28 08:55:00;;;;;;;;;;;12.80;99.90;;;;;;5053302;28;19929;-71
2022/04/28 08:57:27;;;;;;;;;;;12.90;99.90;;;;;;5070175;28;19933;-71
2022/04/28 08:59:55;;;;;;;;;;;13.00;99.90;;;;;;5053280;28;19925;-74
2022/04/28 09:02:23;;;;;;;;;;;13.10;99.90;;;;;;5053189;28;19924;-71
2022/04/28 09:05:10;;;;;;;;;;;13.30;99.90;;;;;;5069689;28;19978;-71
2022/04/28 09:08:16;;;;;;;;;;;13.40;99.90;;;;;;5053112;28;19931;-73
2022/04/28 09:11:02;;;;;;;;;;;13.60;99.90;;;;;;5054154;28;19931;-71
2022/04/28 09:14:11;;;;;;;;;;;13.70;99.90;;;;;;5053708;28;20303;-71
2022/04/28 09:16:41;;;;;;;;;;;13.80;99.90;;;;;;5052781;28;20035;-72
2022/04/28 09:19:07;;;;;;;;;;;13.90;99.90;;;;;;5052505;28;19971;-72
2022/04/28 09:21:36;;;;;;;;;;;14.00;99.90;;;;;;5069733;28;20403;-71
2022/04/28 09:24:03;;;;;;;;;;;14.20;99.90;;;;;;5069170;28;19968;-71
2022/04/28 09:26:32;;;;;;;;;;;14.30;99.90;;;;;;5052730;28;19925;-71
2022/04/28 09:29:02;;;;;;;;;;;14.30;99.90;;;;;;5052280;28;19929;-71
2022/04/28 09:31:30;;;;;;;;;;;14.40;99.90;;;;;;5052575;28;19928;-71
2022/04/28 09:34:20;;;;;;;;;;;14.50;99.90;;;;;;5053340;28;19951;-71
2022/04/28 09:37:16;;;;;;;;;;;14.50;99.90;;;;;;5053290;28;19960;-72
2022/04/28 09:42:35;;;;;;;;;;;14.70;99.90;;;;;;5052655;28;19987;-72
2022/04/28 09:45:08;;;;;;;;;;;14.80;99.90;;;;;;5051964;28;19925;-72
2022/04/28 09:47:39;;;;;;;;;;;14.90;99.90;;;;;;5052520;28;19928;-72
2022/04/28 09:50:13;;;;;;;;;;;15.00;99.90;;;;;;5052325;28;19925;-72
2022/04/28 09:53:03;;;;;;;;;;;15.10;99.90;;;;;;5048908;28;19976;-72
2022/04/28 09:55:57;;;;;;;;;;;15.30;99.90;;;;;;5068695;28;20058;-71
2022/04/28 09:58:30;;;;;;;;;;;15.40;99.90;;;;;;5068587;28;20400;-73
2022/04/28 10:01:03;;;;;;;;;;;15.50;99.90;;;;;;5072887;28;19960;-72
2022/04/28 10:03:34;;;;;;;;;;;15.60;99.90;;;;;;5069596;28;20384;-72
2022/04/28 10:06:03;;;;;;;;;;;15.60;99.90;;;;;;5068753;28;19972;-73
2022/04/28 10:08:50;;;;;;;;;;;15.60;99.90;;;;;;5045672;28;20043;-71
2022/04/28 10:11:22;;;;;;;;;;;15.70;99.90;;;;;;5049128;28;20315;-73
2022/04/28 10:13:50;;;;;;;;;;;15.80;99.90;;;;;;5063957;28;19929;-72
2022/04/28 10:16:20;;;;;;;;;;;15.90;99.90;;;;;;5051620;28;19929;-71
2022/04/28 10:18:49;;;;;;;;;;;16.10;99.90;;;;;;5050842;28;19925;-70
2022/04/28 10:21:18;;;;;;;;;;;16.10;99.90;;;;;;5068538;28;19925;-72
2022/04/28 10:32:56;;;;;;;;;;;16.40;99.90;;;;;;5068283;28;19978;-71
2022/04/28 10:35:33;;;;;;;;;;;16.40;99.90;;;;;;5068579;28;19925;-71
2022/04/28 10:38:05;;;;;;;;;;;16.50;99.90;;;;;;5068114;28;19936;-71
2022/04/28 10:40:36;;;;;;;;;;;16.60;99.90;;;;;;5067178;28;19948;-71
2022/04/28 10:43:05;;;;;;;;;;;16.80;99.90;;;;;;5067232;28;19924;-71
2022/04/28 10:45:39;;;;;;;;;;;16.90;99.90;;;;;;5067307;28;19932;-72
2022/04/28 10:48:21;;;;;;;;;;;17.00;99.90;;;;;;5067931;28;19925;-71
2022/04/28 10:50:59;;;;;;;;;;;17.10;99.90;;;;;;5066820;28;20419;-71
2022/04/28 10:53:25;;;;;;;;;;;17.30;99.90;;;;;;5066261;28;19971;-71
2022/04/28 10:55:53;;;;;;;;;;;17.40;99.90;;;;;;5048670;28;19928;-72
2022/04/28 10:58:21;;;;;;;;;;;17.50;99.90;;;;;;5047411;28;19932;-70
2022/04/28 11:00:53;;;;;;;;;;;17.70;99.90;;;;;;5058396;28;20439;-71
2022/04/28 11:03:34;;;;;;;;;;;17.80;99.90;;;;;;5067029;28;20019;-70
2022/04/28 11:06:08;;;;;;;;;;;17.80;99.90;;;;;;5066487;28;19934;-70
2022/04/28 11:08:36;;;;;;;;;;;17.90;99.90;;;;;;5047867;28;19925;-71
2022/04/28 11:11:04;;;;;;;;;;;18.10;99.90;;;;;;5066774;28;19925;-70
2022/04/28 11:13:32;;;;;;;;;;;18.00;99.90;;;;;;5046811;28;19932;-70
2022/04/28 11:16:01;;;;;;;;;;;17.80;99.90;;;;;;5047014;28;20010;-69
2022/04/28 11:18:28;;;;;;;;;;;17.80;99.90;;;;;;5046651;28;19968;-70
2022/04/28 11:20:58;;;;;;;;;;;18.00;99.90;;;;;;5049461;28;19948;-70
2022/04/28 11:23:25;;;;;;;;;;;18.20;99.90;;;;;;5066491;28;19929;-70
2022/04/28 11:25:52;;;;;;;;;;;18.10;99.90;;;;;;5065948;28;19925;-70
2022/04/28 11:28:18;;;;;;;;;;;18.00;99.90;;;;;;5066756;28;19924;-71
2022/04/28 11:30:47;;;;;;;;;;;18.00;99.90;;;;;;5066055;28;19929;-71
2022/04/28 11:33:14;;;;;;;;;;;18.30;99.90;;;;;;5066842;28;19975;-71
2022/04/28 11:35:40;;;;;;;;;;;18.60;99.90;;;;;;5066453;28;20003;-71
2022/04/28 11:38:08;;;;;;;;;;;18.70;99.90;;;;;;5066406;28;20016;-72
2022/04/28 11:40:37;;;;;;;;;;;19.00;99.90;;;;;;5066276;28;19929;-70
2022/04/28 11:43:04;;;;;;;;;;;19.00;99.90;;;;;;5066541;28;19960;-70
2022/04/28 11:45:32;;;;;;;;;;;19.30;99.90;;;;;;5066279;28;19925;-71
2022/04/28 11:48:00;;;;;;;;;;;20.70;99.90;;;;;;5066422;28;20281;-71
2022/04/28 11:50:30;;;;;;;;;;;22.50;99.90;;;;;;5067239;28;19929;-72
2022/04/28 11:53:00;;;;;;;;;;;23.70;99.90;;;;;;5068867;28;20015;-71
2022/04/28 11:55:29;;;;;;;;;;;24.20;99.90;;;;;;5050152;28;20384;-73
2022/04/28 11:57:56;;;;;;;;;;;25.00;99.90;;;;;;5049815;28;19960;-73
2022/04/28 12:00:25;;;;;;;;;;;25.20;99.90;;;;;;5048410;28;19936;-71
2022/04/28 12:02:53;;;;;;;;;;;24.60;99.90;;;;;;5048869;28;19924;-72
2022/04/28 12:05:22;;;;;;;;;;;24.50;99.90;;;;;;5066480;28;19956;-71
2022/04/28 12:07:52;;;;;;;;;;;23.80;99.90;;;;;;5066600;28;19928;-72
2022/04/28 12:15:55;;;;;;;;;;;25.60;99.90;;;;;;5047225;28;19921;-72
2022/04/28 12:21:16;;;;;;;;;;;26.20;99.90;;;;;;5047715;28;19921;-72
2022/04/28 12:23:49;;;;;;;;;;;26.00;99.90;;;;;;5065606;28;20451;-73
2022/04/28 12:26:16;;;;;;;;;;;26.40;99.90;;;;;;5065696;28;19925;-72
2022/04/28 12:28:43;;;;;;;;;;;26.80;99.90;;;;;;5065857;28;19929;-72
2022/04/28 12:31:11;;;;;;;;;;;26.50;99.90;;;;;;5065716;28;20303;-73
2022/04/28 12:33:38;;;;;;;;;;;26.50;99.90;;;;;;5065228;28;20030;-72
2022/04/28 12:36:06;;;;;;;;;;;27.00;99.90;;;;;;5071149;28;19954;-71
2022/04/28 12:38:35;;;;;;;;;;;27.20;99.90;;;;;;5045813;28;19925;-72
2022/04/28 12:41:12;;;;;;;;;;;26.90;99.90;;;;;;5065937;28;19924;-73
2022/04/28 12:43:41;;;;;;;;;;;26.70;99.90;;;;;;5066074;28;20300;-72
2022/04/28 12:46:08;;;;;;;;;;;26.40;99.90;;;;;;5066740;28;19925;-68
2022/04/28 12:48:36;;;;;;;;;;;26.20;99.90;;;;;;5066127;28;20432;-69
2022/04/28 12:51:10;;;;;;;;;;;26.50;99.90;;;;;;5066453;28;19936;-73
2022/04/28 12:53:39;;;;;;;;;;;26.60;99.90;;;;;;5066436;28;19925;-73
2022/04/28 12:56:07;;;;;;;;;;;27.00;99.90;;;;;;5066051;28;19925;-74
2022/04/28 12:58:38;;;;;;;;;;;26.70;99.90;;;;;;5065494;28;20396;-73
2022/04/28 13:01:08;;;;;;;;;;;26.60;99.90;;;;;;5066431;28;19925;-73
2022/04/28 13:03:36;;;;;;;;;;;27.10;99.90;;;;;;5049078;28;20384;-74
2022/04/28 13:06:04;;;;;;;;;;;27.60;99.90;;;;;;5066018;28;19974;-71
2022/04/28 13:08:31;;;;;;;;;;;27.60;99.90;;;;;;5066017;28;19935;-73
2022/04/28 13:10:59;;;;;;;;;;;27.50;99.90;;;;;;5065886;28;19983;-71
2022/04/28 13:13:26;;;;;;;;;;;27.60;99.90;;;;;;5066855;28;19925;-72
2022/04/28 13:15:53;;;;;;;;;;;27.00;99.90;;;;;;5069028;28;19932;-72
2022/04/28 13:18:20;;;;;;;;;;;27.30;99.90;;;;;;5069427;28;19925;-72
2022/04/28 13:20:47;;;;;;;;;;;27.20;99.90;;;;;;5069233;28;19925;-72
2022/04/28 13:23:14;;;;;;;;;;;26.90;99.90;;;;;;5069442;28;19964;-72
2022/04/28 13:25:40;;;;;;;;;;;27.10;99.90;;;;;;5068871;28;19925;-72
2022/04/28 13:28:09;;;;;;;;;;;27.40;99.90;;;;;;5068990;28;19925;-70
2022/04/28 13:30:38;;;;;;;;;;;27.70;99.90;;;;;;5067974;28;19925;-72
2022/04/28 13:33:04;;;;;;;;;;;27.70;99.90;;;;;;5068831;28;19924;-72
2022/04/28 13:35:31;;;;;;;;;;;28.10;99.90;;;;;;5069016;28;19929;-72
2022/04/28 13:37:58;;;;;;;;;;;28.40;99.90;;;;;;5069078;28;19929;-72
2022/04/28 13:40:25;;;;;;;;;;;27.80;99.90;;;;;;5068764;28;19924;-73
2022/04/28 13:42:51;;;;;;;;;;;27.80;99.90;;;;;;5069008;28;19925;-72
2022/04/28 13:45:20;;;;;;;;;;;28.00;99.90;;;;;;5068488;28;19932;-72
2022/04/28 13:47:47;;;;;;;;;;;28.40;99.90;;;;;;5070607;28;19931;-73
2022/04/28 13:50:13;;;;;;;;;;;28.60;99.90;;;;;;5068625;28;19931;-72
2022/04/28 13:52:40;;;;;;;;;;;28.10;99.90;;;;;;5068858;28;19929;-71
2022/04/28 13:55:07;;;;;;;;;;;27.90;99.90;;;;;;5068329;28;19928;-71
2022/04/28 13:57:34;;;;;;;;;;;28.20;99.90;;;;;;5068688;28;19932;-71
2022/04/28 14:00:01;;;;;;;;;;;28.30;99.90;;;;;;5068140;28;20411;-71
2022/04/28 14:02:29;;;;;;;;;;;28.30;99.90;;;;;;5068097;28;19933;-73
2022/04/28 14:04:56;;;;;;;;;;;28.30;99.90;;;;;;5075909;28;19960;-73
2022/04/28 14:07:23;;;;;;;;;;;28.50;99.90;;;;;;5068218;28;19939;-71
2022/04/28 14:09:51;;;;;;;;;;;28.40;99.90;;;;;;5068008;28;19924;-73
2022/04/28 14:12:18;;;;;;;;;;;28.30;99.90;;;;;;5068440;28;19925;-71
2022/04/28 14:14:45;;;;;;;;;;;28.90;99.90;;;;;;5067870;28;20281;-71
2022/04/28 14:17:18;;;;;;;;;;;29.40;99.90;;;;;;5068553;28;19924;-72
2022/04/28 14:19:50;;;;;;;;;;;29.50;99.90;;;;;;5051847;28;19924;-72
2022/04/28 14:22:17;;;;;;;;;;;29.50;99.90;;;;;;5066799;28;19928;-74
2022/04/28 14:24:44;;;;;;;;;;;29.40;99.90;;;;;;5048731;28;19924;-73
2022/04/28 14:27:12;;;;;;;;;;;28.80;99.90;;;;;;5067214;28;19975;-73
2022/04/28 14:29:38;;;;;;;;;;;28.90;99.90;;;;;;5072780;28;19964;-72
2022/04/28 14:32:06;;;;;;;;;;;28.80;99.90;;;;;;5067690;28;19925;-73
2022/04/28 14:34:32;;;;;;;;;;;29.20;99.90;;;;;;5067016;28;19932;-72
2022/04/28 14:37:01;;;;;;;;;;;28.90;98.70;;;;;;5049776;28;19925;-72
2022/04/28 14:39:28;;;;;;;;;;;28.60;99.00;;;;;;5067063;28;19931;-72
2022/04/28 14:41:55;;;;;;;;;;;28.30;98.80;;;;;;5067944;28;20331;-72
2022/04/28 14:44:22;;;;;;;;;;;28.10;98.30;;;;;;5067610;28;19974;-71
2022/04/28 14:46:49;;;;;;;;;;;27.90;97.90;;;;;;5067398;28;19925;-71
2022/04/28 14:54:46;;;;;;;;;;;28.70;97.20;;;;;;5050514;28;19932;-71
2022/04/28 14:57:13;;;;;;;;;;;28.60;97.80;;;;;;5067569;28;20188;-71
2022/04/28 14:59:40;;;;;;;;;;;28.50;97.90;;;;;;5067150;28;19962;-71
2022/04/28 15:02:07;;;;;;;;;;;28.40;98.30;;;;;;5067184;28;19925;-72
2022/04/28 15:04:33;;;;;;;;;;;28.70;98.30;;;;;;5066616;28;19940;-73
2022/04/28 15:07:02;;;;;;;;;;;28.90;98.30;;;;;;5066617;28;19929;-72
2022/04/28 15:09:28;;;;;;;;;;;28.30;98.10;;;;;;5066636;28;19986;-71
2022/04/28 15:11:56;;;;;;;;;;;28.10;97.90;;;;;;5069032;28;19924;-71
2022/04/28 15:14:22;;;;;;;;;;;28.50;98.40;;;;;;5049383;28;19931;-71
2022/04/28 15:16:49;;;;;;;;;;;28.80;98.60;;;;;;5049851;28;19924;-71
2022/04/28 15:19:16;;;;;;;;;;;29.30;98.20;;;;;;5066331;28;19978;-72
2022/04/28 15:21:43;;;;;;;;;;;29.40;98.70;;;;;;5067682;28;19979;-73
2022/04/28 15:24:12;;;;;;;;;;;29.40;98.90;;;;;;5067246;28;19925;-71
2022/04/28 15:26:39;;;;;;;;;;;29.20;97.90;;;;;;5066950;28;19929;-73
2022/04/28 15:29:06;;;;;;;;;;;28.60;99.50;;;;;;5066997;28;19925;-72
2022/04/28 15:31:35;;;;;;;;;;;28.60;99.80;;;;;;5066938;28;19925;-73
2022/04/28 15:34:02;;;;;;;;;;;28.20;98.70;;;;;;5066416;28;19929;-77